createdAt,value
2023-05-17T00:01:47.110Z,79.80
2023-05-17T00:04:16.514Z,80.60
2023-05-17T00:07:10.539Z,80.61
2023-05-17T00:09:40.101Z,81.20
2023-05-17T00:12:08.768Z,80.97
2023-05-17T00:14:36.944Z,80.26
2023-05-17T00:17:07.510Z,79.60
2023-05-17T00:19:35.776Z,80.16
2023-05-17T00:22:04.109Z,80.45
2023-05-17T00:24:32.266Z,79.79
2023-05-17T00:27:01.868Z,80.13
2023-05-17T00:29:30.075Z,79.88
2023-05-17T00:31:58.370Z,80.08
2023-05-17T00:34:26.673Z,80.05
2023-05-17T00:36:54.878Z,80.11
2023-05-17T00:39:23.113Z,80.01
2023-05-17T00:41:51.426Z,80.43
2023-05-17T00:44:20.992Z,80.47
2023-05-17T00:46:50.510Z,80.94
2023-05-17T00:49:19.456Z,81.01
2023-05-17T00:51:47.823Z,80.63
2023-05-17T00:54:17.079Z,79.80
2023-05-17T00:56:46.007Z,81.12
2023-05-17T00:59:15.369Z,80.76
2023-05-17T01:01:45.366Z,80.98
2023-05-17T01:04:14.234Z,80.66
2023-05-17T01:06:42.771Z,81.95
2023-05-17T01:09:11.643Z,81.50
2023-05-17T01:11:50.105Z,82.04
2023-05-17T01:14:38.449Z,81.24
2023-05-17T01:17:18.454Z,82.99
2023-05-17T01:20:06.365Z,82.84
2023-05-17T01:22:46.094Z,82.59
2023-05-17T01:25:30.914Z,81.88
2023-05-17T01:28:03.657Z,82.74
2023-05-17T01:30:34.249Z,82.03
2023-05-17T01:33:04.273Z,82.95
2023-05-17T01:35:32.705Z,82.56
2023-05-17T01:38:01.092Z,82.46
2023-05-17T01:40:30.611Z,83.77
2023-05-17T01:43:10.323Z,83.98
2023-05-17T01:45:45.832Z,82.99
2023-05-17T01:48:21.727Z,83.11
2023-05-17T01:50:52.231Z,83.95
2023-05-17T01:53:27.257Z,83.23
2023-05-17T01:55:58.616Z,83.01
2023-05-17T01:58:32.019Z,83.69
2023-05-17T02:01:02.535Z,84.19
2023-05-17T02:03:31.052Z,83.87
2023-05-17T02:06:06.971Z,84.48
2023-05-17T02:08:35.193Z,84.54
2023-05-17T02:11:03.589Z,84.21
2023-05-17T02:13:33.533Z,83.67
2023-05-17T02:16:02.046Z,83.97
2023-05-17T02:18:30.732Z,84.17
2023-05-17T02:20:59.147Z,85.29
2023-05-17T02:23:27.443Z,84.97
2023-05-17T02:25:56.281Z,83.77
2023-05-17T02:28:24.615Z,84.65
2023-05-17T02:30:54.688Z,83.77
2023-05-17T02:33:23.194Z,83.25
2023-05-17T02:35:51.553Z,83.44
2023-05-17T02:38:21.090Z,84.12
2023-05-17T02:40:49.715Z,84.10
2023-05-17T02:43:18.030Z,84.27
2023-05-17T02:45:46.327Z,84.47
2023-05-17T02:48:16.036Z,85.19
2023-05-17T02:50:44.298Z,84.61
2023-05-17T02:53:12.659Z,86.19
2023-05-17T02:55:41.095Z,85.14
2023-05-17T02:58:09.499Z,85.65
2023-05-17T03:00:37.797Z,85.55
2023-05-17T03:03:06.193Z,84.78
2023-05-17T03:05:36.519Z,86.12
2023-05-17T03:08:05.609Z,85.83
2023-05-17T03:10:34.010Z,86.63
2023-05-17T03:13:02.291Z,85.98
2023-05-17T03:15:35.087Z,85.93
2023-05-17T03:18:04.910Z,86.33
2023-05-17T03:20:33.293Z,86.22
2023-05-17T03:23:02.922Z,86.47
2023-05-17T03:25:31.455Z,87.05
2023-05-17T03:27:59.793Z,85.42
2023-05-17T03:30:28.239Z,87.46
2023-05-17T03:32:57.110Z,86.95
2023-05-17T03:35:25.895Z,86.80
2023-05-17T03:37:56.652Z,87.51
2023-05-17T03:40:27.377Z,87.50
2023-05-17T03:42:55.734Z,87.82
2023-05-17T03:45:25.309Z,87.78
2023-05-17T03:47:53.660Z,86.33
2023-05-17T03:50:22.696Z,86.25
2023-05-17T03:52:51.648Z,85.96
2023-05-17T03:55:20.316Z,87.81
2023-05-17T03:57:50.183Z,87.33
2023-05-17T04:00:21.916Z,87.91
2023-05-17T04:02:51.650Z,87.86
2023-05-17T04:05:21.014Z,87.75
2023-05-17T04:07:50.352Z,88.51
2023-05-17T04:10:19.075Z,87.99
2023-05-17T04:12:49.894Z,87.80
2023-05-17T04:15:18.217Z,87.72
2023-05-17T04:17:46.581Z,88.06
2023-05-17T04:20:16.227Z,89.22
2023-05-17T04:22:44.699Z,88.48
2023-05-17T04:25:13.448Z,88.31
2023-05-17T04:27:42.168Z,88.25
2023-05-17T04:30:14.303Z,88.48
2023-05-17T04:32:43.252Z,87.60
2023-05-17T04:35:11.675Z,87.37
2023-05-17T04:37:40.922Z,87.02
2023-05-17T04:40:20.039Z,87.13
2023-05-17T04:42:48.740Z,88.27
2023-05-17T04:45:18.945Z,88.08
2023-05-17T04:47:47.444Z,87.98
2023-05-17T04:50:16.814Z,87.62
2023-05-17T04:52:45.444Z,87.68
2023-05-17T04:55:14.200Z,89.07
2023-05-17T04:57:42.542Z,88.91
2023-05-17T05:00:15.363Z,88.48
2023-05-17T05:02:48.114Z,88.30
2023-05-17T05:05:16.647Z,87.81
2023-05-17T05:07:47.227Z,88.36
2023-05-17T05:10:16.062Z,88.78
2023-05-17T05:12:44.828Z,87.98
2023-05-17T05:15:13.726Z,88.17
2023-05-17T05:17:47.045Z,87.92
2023-05-17T05:20:16.460Z,87.52
2023-05-17T05:22:45.151Z,87.01
2023-05-17T05:25:14.563Z,87.39
2023-05-17T05:27:42.767Z,86.96
2023-05-17T05:30:13.444Z,86.97
2023-05-17T05:32:41.778Z,86.92
2023-05-17T05:35:12.525Z,87.01
2023-05-17T05:37:42.452Z,87.40
2023-05-17T05:40:12.015Z,87.10
2023-05-17T05:42:41.998Z,87.44
2023-05-17T05:45:12.736Z,86.82
2023-05-17T05:47:42.249Z,87.04
2023-05-17T05:50:12.611Z,86.52
2023-05-17T05:52:42.197Z,87.08
2023-05-17T05:55:11.295Z,87.86
2023-05-17T05:57:39.569Z,86.91
2023-05-17T06:00:12.020Z,86.85
2023-05-17T06:02:43.672Z,85.95
2023-05-17T06:05:14.916Z,85.45
2023-05-17T06:07:43.194Z,84.98
2023-05-17T06:10:12.490Z,85.70
2023-05-17T06:12:40.813Z,86.27
2023-05-17T06:15:10.621Z,85.61
2023-05-17T06:17:38.924Z,85.18
2023-05-17T06:20:08.751Z,85.38
2023-05-17T06:22:38.376Z,86.02
2023-05-17T06:25:07.578Z,85.13
2023-05-17T06:27:35.882Z,85.35
2023-05-17T06:30:07.274Z,84.76
2023-05-17T06:32:36.034Z,84.17
2023-05-17T06:35:04.770Z,85.46
2023-05-17T06:37:33.089Z,85.07
2023-05-17T06:40:10.536Z,85.73
2023-05-17T06:42:44.199Z,85.90
2023-05-17T06:45:13.833Z,84.33
2023-05-17T06:47:42.285Z,83.86
2023-05-17T06:50:11.343Z,83.59
2023-05-17T06:52:39.658Z,84.53
2023-05-17T06:55:10.350Z,84.43
2023-05-17T06:57:38.687Z,84.95
2023-05-17T07:00:11.197Z,84.44
2023-05-17T07:02:39.876Z,84.20
2023-05-17T07:05:09.401Z,84.68
2023-05-17T07:07:37.696Z,85.61
2023-05-17T07:10:09.392Z,84.81
2023-05-17T07:12:37.767Z,85.21
2023-05-17T07:15:07.476Z,81.86
2023-05-17T07:17:35.991Z,82.10
2023-05-17T07:20:06.210Z,80.22
2023-05-17T07:22:35.141Z,80.36
2023-05-17T07:25:04.402Z,80.59
2023-05-17T07:27:34.209Z,79.65
2023-05-17T07:30:03.438Z,78.68
2023-05-17T07:32:31.991Z,77.47
2023-05-17T07:35:02.245Z,79.00
2023-05-17T07:37:30.690Z,81.05
2023-05-17T07:39:58.926Z,78.90
2023-05-17T07:42:28.258Z,76.99
2023-05-17T07:44:57.888Z,78.46
2023-05-17T07:47:26.470Z,77.37
2023-05-17T07:49:56.567Z,77.08
2023-05-17T07:52:24.779Z,77.36
2023-05-17T07:54:52.995Z,75.20
2023-05-17T07:57:21.224Z,75.10
2023-05-17T07:59:49.457Z,75.85
2023-05-17T08:02:19.030Z,73.61
2023-05-17T08:04:48.795Z,73.40
2023-05-17T08:07:17.931Z,75.26
2023-05-17T08:09:46.138Z,74.16
2023-05-17T08:12:14.398Z,71.97
2023-05-17T08:14:42.716Z,73.78
2023-05-17T08:17:10.955Z,74.81
2023-05-17T08:19:41.018Z,72.33
2023-05-17T08:22:09.561Z,70.83
2023-05-17T08:24:44.918Z,71.62
2023-05-17T08:27:13.303Z,70.23
2023-05-17T08:29:41.715Z,71.42
2023-05-17T08:32:10.005Z,70.98
2023-05-17T08:34:38.254Z,70.07
2023-05-17T08:37:08.260Z,70.84
2023-05-17T08:39:36.560Z,73.57
2023-05-17T08:42:09.606Z,73.59
2023-05-17T08:44:38.761Z,73.92
2023-05-17T08:47:09.301Z,72.64
2023-05-17T08:49:38.097Z,72.80
2023-05-17T08:52:11.144Z,69.94
2023-05-17T08:54:39.489Z,69.11
2023-05-17T08:57:08.906Z,68.82
2023-05-17T08:59:38.177Z,69.50
2023-05-17T09:02:07.353Z,69.47
2023-05-17T09:04:36.230Z,68.68
2023-05-17T09:07:28.877Z,67.89
2023-05-17T09:09:58.557Z,68.63
2023-05-17T09:12:27.184Z,70.42
2023-05-17T09:14:55.763Z,69.81
2023-05-17T09:17:24.186Z,70.43
2023-05-17T09:19:52.739Z,69.34
2023-05-17T09:22:21.539Z,66.60
2023-05-17T09:24:51.449Z,66.81
2023-05-17T09:27:21.098Z,64.52
2023-05-17T09:29:49.314Z,66.32
2023-05-17T09:32:20.630Z,64.52
2023-05-17T09:34:50.043Z,65.57
2023-05-17T09:37:20.859Z,65.66
2023-05-17T09:39:49.474Z,68.31
2023-05-17T09:42:20.706Z,67.21
2023-05-17T09:44:53.194Z,66.98
2023-05-17T09:47:26.894Z,64.58
2023-05-17T09:49:57.481Z,65.62
2023-05-17T09:52:26.990Z,64.23
2023-05-17T09:54:57.496Z,65.42
2023-05-17T09:57:29.629Z,65.12
2023-05-17T09:59:58.528Z,65.50
2023-05-17T10:02:30.171Z,64.97
2023-05-17T10:04:59.362Z,65.89
2023-05-17T10:07:33.310Z,66.68
2023-05-17T10:10:01.970Z,67.23
2023-05-17T10:12:35.217Z,65.83
2023-05-17T10:15:04.988Z,63.67
2023-05-17T10:17:35.845Z,64.32
2023-05-17T10:20:08.745Z,64.75
2023-05-17T10:22:38.169Z,64.70
2023-05-17T10:25:11.315Z,66.34
2023-05-17T10:27:44.085Z,65.69
2023-05-17T10:30:14.609Z,66.31
2023-05-17T10:32:44.109Z,67.20
2023-05-17T10:35:16.048Z,68.03
2023-05-17T10:37:44.375Z,67.17
2023-05-17T10:40:14.331Z,67.11
2023-05-17T10:42:50.904Z,67.34
2023-05-17T10:45:22.897Z,67.79
2023-05-17T10:47:52.886Z,68.26
2023-05-17T10:50:24.434Z,68.20
2023-05-17T10:52:55.873Z,68.81
2023-05-17T10:55:26.184Z,68.97
2023-05-17T10:58:19.920Z,67.15
2023-05-17T11:00:52.031Z,68.10
2023-05-17T11:03:23.694Z,68.63
2023-05-17T11:06:25.336Z,67.26
2023-05-17T11:09:16.066Z,68.06
2023-05-17T11:12:06.158Z,68.65
2023-05-17T11:14:55.664Z,68.79
2023-05-17T11:17:27.541Z,69.57
2023-05-17T11:20:06.013Z,71.02
2023-05-17T11:22:41.155Z,71.00
2023-05-17T11:25:13.062Z,70.59
2023-05-17T11:27:46.598Z,69.85
2023-05-17T11:30:24.463Z,69.06
2023-05-17T11:32:56.051Z,69.04
2023-05-17T11:35:31.169Z,68.94
2023-05-17T11:38:25.046Z,68.78
2023-05-17T11:40:56.224Z,69.95
2023-05-17T11:43:27.353Z,68.02
2023-05-17T11:46:01.477Z,67.93
2023-05-17T11:48:32.226Z,69.24
2023-05-17T11:51:02.380Z,68.46
2023-05-17T11:53:32.815Z,68.04
2023-05-17T11:56:05.357Z,68.76
2023-05-17T11:58:34.299Z,68.86
2023-05-17T12:01:04.431Z,69.17
2023-05-17T12:03:34.701Z,68.23
2023-05-17T12:06:18.712Z,67.22
2023-05-17T12:08:48.332Z,67.68
2023-05-17T12:11:18.277Z,68.04
2023-05-17T12:13:53.029Z,66.73
2023-05-17T12:16:24.895Z,66.42
2023-05-17T12:18:53.803Z,67.21
2023-05-17T12:21:22.253Z,67.85
2023-05-17T12:23:53.437Z,68.48
2023-05-17T12:26:23.652Z,67.61
2023-05-17T12:28:57.510Z,67.27
2023-05-17T12:31:30.974Z,66.67
2023-05-17T12:34:02.231Z,67.25
2023-05-17T12:36:33.510Z,67.89
2023-05-17T12:39:05.650Z,67.91
2023-05-17T12:41:34.247Z,68.34
2023-05-17T12:44:14.428Z,67.92
2023-05-17T12:46:45.063Z,68.25
2023-05-17T12:49:13.452Z,67.59
2023-05-17T12:51:43.424Z,67.55
2023-05-17T12:54:12.987Z,68.67
2023-05-17T12:56:43.879Z,68.40
2023-05-17T12:59:16.790Z,67.71
2023-05-17T13:01:48.982Z,66.11
2023-05-17T13:04:19.049Z,66.58
2023-05-17T13:06:49.432Z,64.76
2023-05-17T13:09:18.886Z,65.29
2023-05-17T13:11:52.322Z,65.15
2023-05-17T13:14:36.817Z,64.99
2023-05-17T13:17:08.905Z,65.89
2023-05-17T13:19:37.767Z,64.68
2023-05-17T13:22:07.695Z,65.11
2023-05-17T13:24:39.728Z,66.10
2023-05-17T13:27:08.711Z,64.79
2023-05-17T13:29:40.560Z,63.70
2023-05-17T13:32:12.836Z,64.50
2023-05-17T13:34:41.849Z,64.67
2023-05-17T13:37:12.485Z,65.73
2023-05-17T13:39:42.133Z,64.90
2023-05-17T13:42:10.862Z,65.04
2023-05-17T13:44:39.601Z,65.18
2023-05-17T13:47:08.369Z,65.02
2023-05-17T13:49:38.141Z,64.82
2023-05-17T13:52:08.895Z,65.57
2023-05-17T13:54:38.174Z,66.48
2023-05-17T13:57:08.194Z,67.19
2023-05-17T13:59:36.697Z,67.06
2023-05-17T14:02:05.254Z,66.15
2023-05-17T14:04:44.824Z,67.07
2023-05-17T14:07:21.670Z,64.25
2023-05-17T14:09:49.977Z,62.98
2023-05-17T14:12:18.292Z,62.86
2023-05-17T14:14:46.557Z,61.92
2023-05-17T14:17:14.800Z,61.40
2023-05-17T14:19:44.479Z,61.15
2023-05-17T14:22:13.769Z,61.83
2023-05-17T14:24:42.162Z,62.21
2023-05-17T14:27:10.390Z,61.75
2023-05-17T14:29:38.648Z,64.16
2023-05-17T14:32:08.044Z,64.46
2023-05-17T14:34:36.350Z,65.20
2023-05-17T14:37:08.688Z,65.29
2023-05-17T14:39:37.372Z,66.38
2023-05-17T14:42:06.606Z,66.01
2023-05-17T14:44:38.689Z,65.57
2023-05-17T14:47:08.851Z,64.58
2023-05-17T14:49:37.073Z,63.46
2023-05-17T14:52:06.857Z,63.42
2023-05-17T14:54:35.633Z,63.65
2023-05-17T14:57:04.970Z,63.16
2023-05-17T14:59:33.301Z,61.40
2023-05-17T15:02:01.548Z,60.44
2023-05-17T15:04:29.927Z,61.32
2023-05-17T15:06:58.948Z,60.21
2023-05-17T15:09:30.778Z,59.32
2023-05-17T15:11:59.170Z,57.06
2023-05-17T15:14:27.444Z,57.83
2023-05-17T15:16:56.340Z,58.42
2023-05-17T15:19:24.703Z,60.02
2023-05-17T15:21:53.011Z,58.70
2023-05-17T15:24:21.260Z,59.75
2023-05-17T15:26:50.844Z,60.39
2023-05-17T15:29:19.331Z,57.80
2023-05-17T15:31:47.538Z,57.38
2023-05-17T15:34:16.033Z,58.31
2023-05-17T15:36:44.455Z,60.08
2023-05-17T15:39:12.738Z,59.47
2023-05-17T15:41:41.014Z,59.80
2023-05-17T15:44:10.700Z,59.14
2023-05-17T15:46:39.279Z,58.23
2023-05-17T15:49:07.604Z,57.73
2023-05-17T15:51:36.038Z,57.15
2023-05-17T15:54:04.388Z,58.76
2023-05-17T15:56:32.690Z,58.79
2023-05-17T15:59:02.714Z,59.15
2023-05-17T16:01:34.200Z,59.70
2023-05-17T16:04:02.480Z,59.81
2023-05-17T16:06:34.854Z,55.51
2023-05-17T16:09:03.655Z,55.48
2023-05-17T16:11:32.410Z,55.75
2023-05-17T16:14:00.742Z,57.33
2023-05-17T16:16:29.119Z,57.59
2023-05-17T16:18:58.772Z,58.29
2023-05-17T16:21:27.074Z,57.83
2023-05-17T16:23:55.444Z,57.58
2023-05-17T16:26:23.720Z,56.15
2023-05-17T16:28:52.108Z,57.03
2023-05-17T16:31:20.775Z,57.26
2023-05-17T16:33:49.189Z,57.79
2023-05-17T16:36:18.853Z,58.83
2023-05-17T16:38:47.189Z,58.43
2023-05-17T16:41:15.412Z,57.56
2023-05-17T16:43:43.616Z,55.63
2023-05-17T16:46:12.028Z,56.46
2023-05-17T16:48:41.027Z,55.08
2023-05-17T16:51:09.271Z,56.42
2023-05-17T16:53:38.864Z,55.96
2023-05-17T16:56:07.664Z,56.43
2023-05-17T16:58:35.910Z,56.74
2023-05-17T17:01:04.176Z,55.97
2023-05-17T17:03:32.637Z,56.73
2023-05-17T17:06:01.025Z,57.12
2023-05-17T17:08:29.313Z,57.74
2023-05-17T17:10:58.968Z,57.58
2023-05-17T17:13:27.679Z,57.36
2023-05-17T17:15:55.993Z,56.83
2023-05-17T17:18:24.289Z,57.10
2023-05-17T17:20:52.582Z,57.36
2023-05-17T17:23:20.799Z,57.29
2023-05-17T17:25:48.988Z,57.18
2023-05-17T17:28:18.536Z,57.29
2023-05-17T17:30:47.512Z,56.79
2023-05-17T17:33:15.746Z,56.99
2023-05-17T17:35:43.961Z,56.72
2023-05-17T17:38:14.659Z,56.12
2023-05-17T17:40:42.864Z,56.56
2023-05-17T17:43:11.108Z,56.15
2023-05-17T17:45:40.719Z,56.16
2023-05-17T17:48:09.000Z,56.38
2023-05-17T17:50:37.186Z,56.76
2023-05-17T17:53:05.400Z,56.70
2023-05-17T17:55:33.624Z,55.71
2023-05-17T17:58:01.906Z,55.88
2023-05-17T18:00:30.346Z,55.00
2023-05-17T18:03:00.266Z,55.00
2023-05-17T18:05:28.835Z,55.40
2023-05-17T18:07:57.884Z,55.60
2023-05-17T18:10:26.161Z,56.63
2023-05-17T18:12:54.907Z,55.81
2023-05-17T18:15:23.340Z,55.97
2023-05-17T18:17:52.243Z,56.68
2023-05-17T18:20:23.162Z,56.09
2023-05-17T18:22:51.416Z,56.69
2023-05-17T18:25:20.033Z,56.28
2023-05-17T18:27:48.274Z,57.24
2023-05-17T18:30:16.567Z,58.31
2023-05-17T18:32:44.995Z,58.59
2023-05-17T18:35:13.770Z,59.30
2023-05-17T18:37:43.634Z,60.32
2023-05-17T18:40:13.816Z,62.24
2023-05-17T18:42:42.286Z,64.08
2023-05-17T18:45:11.810Z,65.94
2023-05-17T18:47:40.124Z,67.79
2023-05-17T18:50:10.032Z,68.90
2023-05-17T18:52:39.350Z,69.69
2023-05-17T18:55:09.898Z,71.13
2023-05-17T18:57:38.155Z,71.81
2023-05-17T19:00:08.618Z,71.78
2023-05-17T19:02:36.900Z,72.38
2023-05-17T19:05:05.895Z,73.35
2023-05-17T19:07:34.197Z,72.60
2023-05-17T19:10:02.429Z,73.07
2023-05-17T19:12:32.024Z,73.31
2023-05-17T19:15:00.262Z,73.34
2023-05-17T19:17:28.547Z,73.55
2023-05-17T19:19:57.191Z,73.58
2023-05-17T19:22:25.447Z,74.16
2023-05-17T19:24:53.774Z,74.79
2023-05-17T19:27:22.018Z,74.34
2023-05-17T19:29:51.727Z,75.05
2023-05-17T19:32:20.516Z,74.87
2023-05-17T19:34:48.748Z,74.88
2023-05-17T19:37:17.079Z,76.74
2023-05-17T19:39:45.377Z,77.40
2023-05-17T19:42:13.647Z,77.44
2023-05-17T19:44:41.873Z,77.46
2023-05-17T19:47:11.555Z,78.16
2023-05-17T19:49:40.039Z,77.10
2023-05-17T19:52:08.914Z,77.90
2023-05-17T19:54:37.181Z,78.51
2023-05-17T19:57:06.141Z,78.04
2023-05-17T19:59:34.602Z,77.85
2023-05-17T20:02:05.783Z,78.38
2023-05-17T20:04:35.556Z,78.19
2023-05-17T20:07:04.190Z,78.41
2023-05-17T20:09:32.440Z,79.11
2023-05-17T20:12:01.053Z,78.80
2023-05-17T20:14:29.556Z,79.40
2023-05-17T20:16:57.838Z,79.52
2023-05-17T20:19:26.278Z,79.85
2023-05-17T20:21:56.202Z,79.83
2023-05-17T20:24:25.911Z,79.38
2023-05-17T20:26:54.192Z,79.73
2023-05-17T20:29:22.450Z,80.05
2023-05-17T20:31:50.751Z,80.05
2023-05-17T20:34:19.514Z,80.64
2023-05-17T20:36:47.877Z,81.35
2023-05-17T20:39:17.927Z,81.23
2023-05-17T20:41:47.683Z,81.76
2023-05-17T20:44:18.738Z,81.32
2023-05-17T20:46:47.262Z,81.49
2023-05-17T20:49:16.942Z,82.03
2023-05-17T20:51:45.726Z,82.12
2023-05-17T20:54:16.044Z,83.44
2023-05-17T20:56:45.760Z,83.94
2023-05-17T20:59:14.031Z,83.59
2023-05-17T21:01:42.384Z,83.15
2023-05-17T21:04:11.271Z,83.19
2023-05-17T21:06:39.528Z,83.10
2023-05-17T21:09:08.379Z,82.09
2023-05-17T21:11:36.716Z,82.14
2023-05-17T21:14:06.306Z,81.70
2023-05-17T21:16:35.412Z,82.92
2023-05-17T21:19:03.867Z,83.04
2023-05-17T21:21:32.152Z,83.07
2023-05-17T21:24:00.371Z,83.61
2023-05-17T21:26:53.675Z,82.57
2023-05-17T21:29:23.704Z,83.04
2023-05-17T21:31:52.022Z,82.59
2023-05-17T21:34:20.267Z,82.95
2023-05-17T21:36:48.555Z,82.85
2023-05-17T21:39:17.100Z,82.93
2023-05-17T21:41:45.343Z,82.56
2023-05-17T21:44:13.645Z,83.23
2023-05-17T21:46:43.405Z,83.59
2023-05-17T21:49:11.773Z,84.79
2023-05-17T21:51:41.601Z,84.19
2023-05-17T21:54:09.842Z,83.48
2023-05-17T21:56:38.242Z,84.18
2023-05-17T21:59:06.466Z,84.30
2023-05-17T22:01:34.747Z,84.25
2023-05-17T22:07:01.718Z,85.50
2023-05-17T22:09:31.006Z,84.57
2023-05-17T22:11:59.659Z,84.75
2023-05-17T22:14:33.257Z,85.66
2023-05-17T22:17:03.153Z,86.71
2023-05-17T22:19:32.787Z,86.86
2023-05-17T22:22:03.019Z,86.27
2023-05-17T22:24:31.452Z,86.16
2023-05-17T22:26:59.752Z,85.23
2023-05-17T22:29:28.241Z,85.79
2023-05-17T22:31:56.619Z,86.78
2023-05-17T22:34:33.022Z,86.03
2023-05-17T22:37:01.651Z,86.51
2023-05-17T22:39:29.883Z,86.19
2023-05-17T22:41:58.262Z,86.63
2023-05-17T22:44:27.331Z,86.15
2023-05-17T22:46:57.705Z,86.59
2023-05-17T22:49:26.090Z,87.55
2023-05-17T22:51:56.038Z,88.05
2023-05-17T22:54:26.741Z,86.96
2023-05-17T22:56:55.298Z,87.46
2023-05-17T22:59:23.858Z,87.00
2023-05-17T23:01:52.262Z,86.43
2023-05-17T23:04:25.881Z,86.06
2023-05-17T23:07:02.389Z,86.38
2023-05-17T23:09:31.201Z,87.29
2023-05-17T23:12:00.513Z,88.40
2023-05-17T23:14:57.900Z,88.15
2023-05-17T23:17:26.575Z,87.64
2023-05-17T23:19:55.664Z,88.01
2023-05-17T23:22:31.205Z,86.92
2023-05-17T23:25:00.305Z,87.38
2023-05-17T23:27:30.085Z,86.91
2023-05-17T23:29:58.512Z,87.36
2023-05-17T23:32:26.836Z,86.81
2023-05-17T23:34:58.561Z,86.46
2023-05-17T23:37:28.215Z,86.50
2023-05-17T23:39:56.602Z,86.00
2023-05-17T23:42:26.595Z,85.57
2023-05-17T23:44:54.945Z,85.78
2023-05-17T23:47:23.252Z,85.89
2023-05-17T23:49:52.823Z,86.09
2023-05-17T23:52:23.350Z,85.56
2023-05-17T23:54:57.365Z,85.29
2023-05-17T23:57:25.754Z,85.56
2023-05-17T23:59:54.068Z,85.62
